Observation data for Muleshoe on 11/08/2019      Previous  Date       Current Mesonet Observations  Soil Data  Daily Summary Page  Observations in Plain Language
KMUS 080600Z 04002KT 00/00 A3046 RMK A01 T00040002  RH  100%=      5-min Rain = 0
KMUS 080605Z 05002KT 00/00 A3045 RMK A01 T00040002  RH  100%=      5-min Rain = 0
KMUS 080610Z 04002KT 00/00 A3045 RMK A01 T00040002  RH  100%=      5-min Rain = 0
KMUS 080615Z 03003KT 00/00 A3045 RMK A01 T00040003  RH  100%=      5-min Rain = 0
KMUS 080620Z 03003KT 00/00 A3045 RMK A01 T00040002  RH  100%=      5-min Rain = 0
KMUS 080625Z 03002KT 00/00 A3045 RMK A01 T00040002  RH  100%=      5-min Rain = 0
KMUS 080630Z 03003KT 00/00 A3045 RMK A01 T00040002  RH  100%=      5-min Rain = 0
KMUS 080635Z 01003KT 00/00 A3045 RMK A01 T00040003  RH  100%=      5-min Rain = 0
KMUS 080640Z 01003KT 01/00 A3045 RMK A01 T00050003  RH  100%=      5-min Rain = 0
KMUS 080645Z 03003KT 00/00 A3045 RMK A01 T00040002  RH  100%=      5-min Rain = 0
KMUS 080650Z 04003KT 00/00 A3045 RMK A01 T00030002  RH  100%=      5-min Rain = 0
KMUS 080655Z 04003KT 00/00 A3045 RMK A01 T00030001  RH  100%=      5-min Rain = 0
KMUS 080700Z 02003KT 00/00 A3044 RMK A01 T00030001  RH  100%=      5-min Rain = 0
KMUS 080705Z 02003KT 00/00 A3044 RMK A01 T00030001  RH  100%=      5-min Rain = 0
KMUS 080710Z 03002KT 00/00 A3044 RMK A01 T00020001  RH  100%=      5-min Rain = 0
KMUS 080715Z 03002KT 00/00 A3044 RMK A01 T00020000  RH  100%=      5-min Rain = 0
KMUS 080720Z 05002KT 00/00 A3044 RMK A01 T00020001  RH  100%=      5-min Rain = 0
KMUS 080725Z 05002KT 00/00 A3043 RMK A01 T00030001  RH  100%=      5-min Rain = 0
KMUS 080730Z 06002KT 00/00 A3043 RMK A01 T00030001  RH  100%=      5-min Rain = 0
KMUS 080735Z 06002KT 00/00 A3043 RMK A01 T00020001  RH  100%=      5-min Rain = 0
KMUS 080740Z 08002KT 00/00 A3043 RMK A01 T00030001  RH  100%=      5-min Rain = 0
KMUS 080745Z 08002KT 00/00 A3043 RMK A01 T00030001  RH  100%=      5-min Rain = 0
KMUS 080750Z 07002KT 00/00 A3043 RMK A01 T00030001  RH  100%=      5-min Rain = 0
KMUS 080755Z 07002KT 00/00 A3042 RMK A01 T00030001  RH  100%=      5-min Rain = 0
KMUS 080800Z 06002KT 00/00 A3042 RMK A01 T00030001  RH  100%=      5-min Rain = 0
KMUS 080805Z 07001KT 00/00 A3042 RMK A01 T00030001  RH  100%=      5-min Rain = 0
KMUS 080810Z 07001KT 00/00 A3042 RMK A01 T00030001  RH  100%=      5-min Rain = 0
KMUS 080815Z 03000KT 00/00 A3042 RMK A01 T00030001  RH  100%=      5-min Rain = 0
KMUS 080820Z 02000KT 00/00 A3042 RMK A01 T00030001  RH  100%=      5-min Rain = 0
KMUS 080825Z 00000KT 00/00 A3042 RMK A01 T00030001  RH  100%=      5-min Rain = 0
KMUS 080830Z 00000KT 00/00 A3042 RMK A01 T00030001  RH  100%=      5-min Rain = 0
KMUS 080835Z 24000KT 00/00 A3042 RMK A01 T00030002  RH  100%=      5-min Rain = 0
KMUS 080840Z 23000KT 00/00 A3042 RMK A01 T00040002  RH  100%=      5-min Rain = 0
KMUS 080845Z 23000KT 00/00 A3042 RMK A01 T00040002  RH  100%=      5-min Rain = 0
KMUS 080850Z 27001KT 01/00 A3042 RMK A01 T00050003  RH  100%=      5-min Rain = 0
KMUS 080855Z 30001KT 01/00 A3042 RMK A01 T00050003  RH  100%=      5-min Rain = 0
KMUS 080900Z 29001KT 01/00 A3041 RMK A01 T00050004  RH  100%=      5-min Rain = 0
KMUS 080905Z 30003KT 01/00 A3041 RMK A01 T00060004  RH  100%=      5-min Rain = 0
KMUS 080910Z 29003KT 01/00 A3041 RMK A01 T00060004  RH  100%=      5-min Rain = 0
KMUS 080915Z 31002KT 01/00 A3041 RMK A01 T00060004  RH  100%=      5-min Rain = 0
KMUS 080920Z 30003KT 01/00 A3041 RMK A01 T00060004  RH  100%=      5-min Rain = 0
KMUS 080925Z 31002KT 01/00 A3041 RMK A01 T00060004  RH  100%=      5-min Rain = 0
KMUS 080930Z 31003KT 01/00 A3041 RMK A01 T00060004  RH  100%=      5-min Rain = 0
KMUS 080935Z 31003KT 01/01 A3041 RMK A01 T00070005  RH  100%=      5-min Rain = 0
KMUS 080940Z 31003KT 01/01 A304 RMK A01 T00070005  RH  100%=      5-min Rain = 0
KMUS 080945Z 28002KT 01/01 A3041 RMK A01 T00070005  RH  100%=      5-min Rain = 0
KMUS 080950Z 28002KT 01/01 A304 RMK A01 T00070005  RH  100%=      5-min Rain = 0
KMUS 080955Z 28001KT 01/01 A304 RMK A01 T00070005  RH  100%=      5-min Rain = 0
KMUS 081000Z 27001KT 01/01 A304 RMK A01 T00070006  RH  100%=      5-min Rain = 0
KMUS 081005Z 29002KT 01/01 A304 RMK A01 T00080006  RH  100%=      5-min Rain = 0
KMUS 081010Z 29001KT 01/01 A304 RMK A01 T00080006  RH  100%=      5-min Rain = 0
KMUS 081015Z 26001KT 01/01 A304 RMK A01 T00080007  RH  100%=      5-min Rain = 0
KMUS 081020Z 24001KT 01/01 A3039 RMK A01 T00090007  RH  100%=      5-min Rain = 0
KMUS 081025Z 28002KT 01/01 A304 RMK A01 T00090008  RH  100%=      5-min Rain = 0
KMUS 081030Z 27002KT 01/01 A3039 RMK A01 T00100008  RH  100%=      5-min Rain = 0
KMUS 081035Z 20001KT 01/01 A3039 RMK A01 T00100008  RH  100%=      5-min Rain = 0
KMUS 081040Z 21002KT 01/01 A3039 RMK A01 T00100008  RH  100%=      5-min Rain = 0
KMUS 081045Z 20001KT 01/01 A3038 RMK A01 T00110009  RH  100%=      5-min Rain = 0
KMUS 081050Z 22002KT 01/01 A3038 RMK A01 T00100009  RH  100%=      5-min Rain = 0
KMUS 081055Z 24002KT 01/01 A3038 RMK A01 T00110009  RH  100%=      5-min Rain = 0
KMUS 081100Z 24003KT 01/01 A3038 RMK A01 T00120010  RH  100%=      5-min Rain = 0
KMUS 081105Z 22003KT 01/01 A3038 RMK A01 T00120010  RH  100%=      5-min Rain = 0
KMUS 081110Z 22003KT 01/01 A3038 RMK A01 T00120010  RH  100%=      5-min Rain = 0
KMUS 081115Z 24003KT 01/01 A3038 RMK A01 T00120010  RH  100%=      5-min Rain = 0
KMUS 081120Z 24003KT 01/01 A3038 RMK A01 T00120010  RH  100%=      5-min Rain = 0
KMUS 081125Z 23002KT 01/01 A3038 RMK A01 T00130011  RH  100%=      5-min Rain = 0
KMUS 081130Z 25002KT 01/01 A3037 RMK A01 T00130011  RH  100%=      5-min Rain = 0
KMUS 081135Z 24003KT 01/01 A3037 RMK A01 T00130011  RH  100%=      5-min Rain = 0
KMUS 081140Z 24004KT 01/01 A3037 RMK A01 T00120010  RH  100%=      5-min Rain = 0
KMUS 081145Z 24003KT 01/01 A3037 RMK A01 T00110009  RH  100%=      5-min Rain = 0
KMUS 081150Z 23003KT 01/01 A3037 RMK A01 T00120010  RH  100%=      5-min Rain = 0
KMUS 081155Z 23004KT 01/01 A3037 RMK A01 T00110009  RH  100%=      5-min Rain = 0
KMUS 081200Z 25004KT 01/01 A3037 RMK A01 T00100008  RH  100%=      5-min Rain = 0
KMUS 081205Z 24004KT 01/01 A3037 RMK A01 T00100008  RH  100%=      5-min Rain = 0
KMUS 081210Z 24004KT 01/01 A3037 RMK A01 T00100008  RH  100%=      5-min Rain = 0
KMUS 081215Z 25005KT 01/01 A3037 RMK A01 T00100008  RH  100%=      5-min Rain = 0
KMUS 081220Z 25004KT 01/01 A3038 RMK A01 T00100009  RH  100%=      5-min Rain = 0
KMUS 081225Z 25005KT 01/01 A3038 RMK A01 T00110009  RH  100%=      5-min Rain = 0
KMUS 081230Z 26005KT 01/01 A3038 RMK A01 T00110009  RH  100%=      5-min Rain = 0
KMUS 081235Z 26004KT 01/01 A3038 RMK A01 T00120010  RH  100%=      5-min Rain = 0
KMUS 081240Z 28007KT 01/01 A3038 RMK A01 T00120011  RH  100%=      5-min Rain = 0
KMUS 081245Z 27005KT 01/01 A3038 RMK A01 T00120010  RH  100%=      5-min Rain = 0
KMUS 081250Z 27004KT 01/01 A3038 RMK A01 T00120010  RH  100%=      5-min Rain = 0
KMUS 081255Z 26004KT 01/01 A3038 RMK A01 T00130011  RH  100%=      5-min Rain = 0
KMUS 081300Z 25005KT 01/01 A3038 RMK A01 T00130011  RH  100%=      5-min Rain = 0
KMUS 081305Z 24006KT 01/01 A3038 RMK A01 T00120011  RH  100%=      5-min Rain = 0
KMUS 081310Z 25006KT 01/01 A3037 RMK A01 T00120010  RH  100%=      5-min Rain = 0
KMUS 081315Z 25004KT 01/01 A3037 RMK A01 T00110009  RH  100%=      5-min Rain = 0
KMUS 081320Z 26004KT 01/01 A3038 RMK A01 T00120010  RH  100%=      5-min Rain = 0
KMUS 081325Z 25005KT 01/01 A3038 RMK A01 T00120010  RH  100%=      5-min Rain = 0
KMUS 081330Z 23007KT 01/01 A3038 RMK A01 T00120010  RH  100%=      5-min Rain = 0
KMUS 081335Z 24005KT 01/01 A3038 RMK A01 T00110009  RH  100%=      5-min Rain = 0
KMUS 081340Z 26004KT 01/01 A3038 RMK A01 T00120010  RH  100%=      5-min Rain = 0
KMUS 081345Z 28005KT 01/01 A3038 RMK A01 T00120010  RH  100%=      5-min Rain = 0
KMUS 081350Z 26004KT 01/01 A3039 RMK A01 T00120010  RH  100%=      5-min Rain = 0
KMUS 081355Z 24005KT 01/01 A3039 RMK A01 T00130011  RH  100%=      5-min Rain = 0
KMUS 081400Z 23005KT 01/01 A3039 RMK A01 T00130011  RH  100%=      5-min Rain = 0
KMUS 081405Z 23006KT 01/01 A3039 RMK A01 T00120010  RH  100%=      5-min Rain = 0
KMUS 081410Z 27006KT 01/01 A3039 RMK A01 T00120010  RH  100%=      5-min Rain = 0
KMUS 081415Z 26006KT 01/01 A304 RMK A01 T00120010  RH  100%=      5-min Rain = 0
KMUS 081420Z 25005KT 01/01 A304 RMK A01 T00140012  RH  100%=      5-min Rain = 0
KMUS 081425Z 24008KT 01/01 A304 RMK A01 T00140012  RH  100%=      5-min Rain = 0
KMUS 081430Z 23007KT 02/01 A304 RMK A01 T00150013  RH  100%=      5-min Rain = 0
KMUS 081435Z 24007KT 02/01 A304 RMK A01 T00150013  RH  100%=      5-min Rain = 0
KMUS 081440Z 26006KT 02/01 A304 RMK A01 T00150013  RH  100%=      5-min Rain = 0
KMUS 081445Z 25006KT 02/01 A304 RMK A01 T00160014  RH  100%=      5-min Rain = 0
KMUS 081450Z 27006KT 02/01 A304 RMK A01 T00160014  RH  100%=      5-min Rain = 0
KMUS 081455Z 27005KT 02/01 A304 RMK A01 T00160014  RH  100%=      5-min Rain = 0
KMUS 081500Z 27006KT 02/02 A304 RMK A01 T00170015  RH  100%=      5-min Rain = 0
KMUS 081505Z 26007KT 02/02 A304 RMK A01 T00180016  RH  100%=      5-min Rain = 0
KMUS 081510Z 25005KT 02/02 A304 RMK A01 T00180016  RH  100%=      5-min Rain = 0
KMUS 081515Z 24007KT 02/02 A304 RMK A01 T00190017  RH  100%=      5-min Rain = 0
KMUS 081520Z 23006KT 02/02 A3039 RMK A01 T00200018  RH  100%=      5-min Rain = 0
KMUS 081525Z 22007KT 02/02 A3039 RMK A01 T00220020  RH  100%=      5-min Rain = 0
KMUS 081530Z 24006KT 02/02 A3039 RMK A01 T00210019  RH  100%=      5-min Rain = 0
KMUS 081535Z 24006KT 02/02 A304 RMK A01 T00210019  RH  100%=      5-min Rain = 0
KMUS 081540Z 23006KT 02/02 A304 RMK A01 T00210019  RH  100%=      5-min Rain = 0
KMUS 081545Z 23006KT 02/02 A304 RMK A01 T00230021  RH  100%=      5-min Rain = 0
KMUS 081550Z 22006KT 02/02 A304 RMK A01 T00230021  RH  100%=      5-min Rain = 0
KMUS 081555Z 23005KT 03/02 A304 RMK A01 T00250023  RH  100%=      5-min Rain = 0
KMUS 081600Z 24007KT 03/02 A3041 RMK A01 T00260023  RH  100%=      5-min Rain = 0
KMUS 081605Z 24007KT 03/02 A304 RMK A01 T00250023  RH  100%=      5-min Rain = 0
KMUS 081610Z 22006KT 02/02 A304 RMK A01 T00240022  RH  100%=      5-min Rain = 0
KMUS 081615Z 23007KT 03/02 A304 RMK A01 T00270024  RH  100%=      5-min Rain = 0
KMUS 081620Z 23007KT 03/03 A304 RMK A01 T00290027  RH  100%=      5-min Rain = 0
KMUS 081625Z 24006KT 03/03 A304 RMK A01 T00290026  RH  100%=      5-min Rain = 0
KMUS 081630Z 22006KT 03/03 A304 RMK A01 T00280026  RH  100%=      5-min Rain = 0
KMUS 081635Z 22009KT 03/03 A3039 RMK A01 T00300027  RH  100%=      5-min Rain = 0
KMUS 081640Z 24008KT 03/03 A3039 RMK A01 T00310029  RH  100%=      5-min Rain = 0
KMUS 081645Z 22009KT 03/03 A3039 RMK A01 T00310029  RH  100%=      5-min Rain = 0
KMUS 081650Z 23009KT 03/03 A3039 RMK A01 T00320030  RH  100%=      5-min Rain = 0
KMUS 081655Z 24008KT 03/03 A3039 RMK A01 T00320030  RH  100%=      5-min Rain = 0
KMUS 081700Z 25010KT 03/03 A3038 RMK A01 T00320030  RH  100%=      5-min Rain = 0
KMUS 081705Z 23009KT 03/03 A3038 RMK A01 T00320030  RH  100%=      5-min Rain = 0
KMUS 081710Z 23008KT 04/03 A3038 RMK A01 T00350032  RH  100%=      5-min Rain = 0
KMUS 081715Z 24009KT 04/03 A3038 RMK A01 T00360033  RH  100%=      5-min Rain = 0
KMUS 081720Z 23010KT 04/03 A3038 RMK A01 T00360033  RH  100%=      5-min Rain = 0
KMUS 081725Z 23009KT 04/04 A3038 RMK A01 T00370035  RH  100%=      5-min Rain = 0
KMUS 081730Z 22009KT 04/04 A3038 RMK A01 T00380035  RH  100%=      5-min Rain = 0
KMUS 081735Z 24009KT 04/04 A3037 RMK A01 T00380035  RH  100%=      5-min Rain = 0
KMUS 081740Z 24010KT 04/04 A3037 RMK A01 T00390037  RH  100%=      5-min Rain = 0
KMUS 081745Z 22008KT 04/04 A3037 RMK A01 T00400037  RH  100%=      5-min Rain = 0
KMUS 081750Z 24008KT 04/04 A3037 RMK A01 T00420039  RH  100%=      5-min Rain = 0
KMUS 081755Z 24007KT 04/04 A3037 RMK A01 T00430040  RH  100%=      5-min Rain = 0
KMUS 081800Z 23009KT 05/04 A3036 RMK A01 T00450042  RH  100%=      5-min Rain = 0
KMUS 081805Z 25008KT 05/04 A3036 RMK A01 T00450042  RH  100%=      5-min Rain = 0
KMUS 081810Z 25007KT 05/04 A3036 RMK A01 T00450042  RH  100%=      5-min Rain = 0
KMUS 081815Z 24008KT 05/04 A3036 RMK A01 T00470044  RH  100%=      5-min Rain = 0
KMUS 081820Z 24008KT 05/04 A3035 RMK A01 T00480044  RH  099%=      5-min Rain = 0
KMUS 081825Z 24007G12KT 05/05 A3035 RMK A01 T00490045  RH  099%=      5-min Rain = 0
KMUS 081830Z 25010KT 05/05 A3035 RMK A01 T00500046  RH  099%=      5-min Rain = 0
KMUS 081835Z 26008KT 05/05 A3034 RMK A01 T00520046  RH  099%=      5-min Rain = 0
KMUS 081840Z 25009KT 05/05 A3034 RMK A01 T00530047  RH  098%=      5-min Rain = 0
KMUS 081845Z 24009KT 06/05 A3034 RMK A01 T00550049  RH  098%=      5-min Rain = 0
KMUS 081850Z 25008KT 06/05 A3034 RMK A01 T00550047  RH  097%=      5-min Rain = 0
KMUS 081855Z 25010KT 06/05 A3034 RMK A01 T00570049  RH  096%=      5-min Rain = 0
KMUS 081900Z 25008KT 06/05 A3034 RMK A01 T00580048  RH  095%=      5-min Rain = 0
KMUS 081905Z 26009KT 06/05 A3034 RMK A01 T00590047  RH  094%=      5-min Rain = 0
KMUS 081910Z 26009KT 06/05 A3033 RMK A01 T00590047  RH  094%=      5-min Rain = 0
KMUS 081915Z 24009KT 06/05 A3033 RMK A01 T00610048  RH  094%=      5-min Rain = 0
KMUS 081920Z 25008G13KT 06/05 A3033 RMK A01 T00620049  RH  093%=      5-min Rain = 0
KMUS 081925Z 26008KT 06/05 A3032 RMK A01 T00640050  RH  093%=      5-min Rain = 0
KMUS 081930Z 26010KT 07/05 A3032 RMK A01 T00650049  RH  091%=      5-min Rain = 0
KMUS 081935Z 25008KT 07/05 A3032 RMK A01 T00660050  RH  091%=      5-min Rain = 0
KMUS 081940Z 23010KT 07/05 A3032 RMK A01 T00690052  RH  090%=      5-min Rain = 0
KMUS 081945Z 25009KT 07/05 A3032 RMK A01 T00710052  RH  090%=      5-min Rain = 0
KMUS 081950Z 25009G14KT 07/05 A3031 RMK A01 T00720053  RH  090%=      5-min Rain = 0
KMUS 081955Z 23010KT 07/05 A3031 RMK A01 T00740054  RH  089%=      5-min Rain = 0
KMUS 082000Z 23010KT 08/06 A3031 RMK A01 T00760056  RH  089%=      5-min Rain = 0
KMUS 082005Z 24009KT 08/06 A303 RMK A01 T00770056  RH  089%=      5-min Rain = 0
KMUS 082010Z 26011KT 08/06 A303 RMK A01 T00790057  RH  088%=      5-min Rain = 0
KMUS 082015Z 26011KT 08/06 A303 RMK A01 T00790057  RH  088%=      5-min Rain = 0
KMUS 082020Z 26011KT 08/06 A303 RMK A01 T00790056  RH  088%=      5-min Rain = 0
KMUS 082025Z 23010KT 08/06 A303 RMK A01 T00820059  RH  087%=      5-min Rain = 0
KMUS 082030Z 24009KT 08/06 A303 RMK A01 T00830058  RH  086%=      5-min Rain = 0
KMUS 082035Z 24011KT 08/06 A303 RMK A01 T00840059  RH  086%=      5-min Rain = 0
KMUS 082040Z 25009KT 08/06 A303 RMK A01 T00840059  RH  086%=      5-min Rain = 0
KMUS 082045Z 26008KT 09/06 A3029 RMK A01 T00870060  RH  085%=      5-min Rain = 0
KMUS 082050Z 26008KT 09/06 A3029 RMK A01 T00880060  RH  085%=      5-min Rain = 0
KMUS 082055Z 25008KT 09/06 A3029 RMK A01 T00890061  RH  085%=      5-min Rain = 0
KMUS 082100Z 25009KT 09/06 A3029 RMK A01 T00920063  RH  084%=      5-min Rain = 0
KMUS 082105Z 26009KT 09/06 A3029 RMK A01 T00940062  RH  083%=      5-min Rain = 0
KMUS 082110Z 26008KT 09/06 A3028 RMK A01 T00940062  RH  083%=      5-min Rain = 0
KMUS 082115Z 27010G15KT 10/06 A3028 RMK A01 T00950063  RH  082%=      5-min Rain = 0
KMUS 082120Z 26008KT 10/07 A3028 RMK A01 T01010065  RH  081%=      5-min Rain = 0
KMUS 082125Z 27007KT 10/07 A3028 RMK A01 T01020066  RH  080%=      5-min Rain = 0
KMUS 082130Z 27008KT 10/06 A3028 RMK A01 T01030064  RH  079%=      5-min Rain = 0
KMUS 082135Z 28004KT 10/06 A3028 RMK A01 T01020064  RH  079%=      5-min Rain = 0
KMUS 082140Z 26008KT 11/07 A3028 RMK A01 T01050065  RH  078%=      5-min Rain = 0
KMUS 082145Z 25008KT 11/07 A3028 RMK A01 T01060065  RH  078%=      5-min Rain = 0
KMUS 082150Z 26007KT 11/07 A3028 RMK A01 T01070065  RH  077%=      5-min Rain = 0
KMUS 082155Z 26008KT 11/07 A3027 RMK A01 T01090066  RH  077%=      5-min Rain = 0
KMUS 082200Z 26007G12KT 11/07 A3027 RMK A01 T01090066  RH  076%=      5-min Rain = 0
KMUS 082205Z 26007KT 11/07 A3027 RMK A01 T01100066  RH  076%=      5-min Rain = 0
KMUS 082210Z 26007KT 11/07 A3027 RMK A01 T01120067  RH  076%=      5-min Rain = 0
KMUS 082215Z 26007KT 11/07 A3027 RMK A01 T01140068  RH  075%=      5-min Rain = 0
KMUS 082220Z 27006KT 12/07 A3027 RMK A01 T01150068  RH  075%=      5-min Rain = 0
KMUS 082225Z 27008KT 11/07 A3027 RMK A01 T01140067  RH  075%=      5-min Rain = 0
KMUS 082230Z 26008KT 11/07 A3027 RMK A01 T01140067  RH  075%=      5-min Rain = 0
KMUS 082235Z 27007KT 11/07 A3026 RMK A01 T01130066  RH  075%=      5-min Rain = 0
KMUS 082240Z 26007KT 11/07 A3026 RMK A01 T01130067  RH  075%=      5-min Rain = 0
KMUS 082245Z 26008KT 11/07 A3026 RMK A01 T01130066  RH  075%=      5-min Rain = 0
KMUS 082250Z 25008KT 11/07 A3026 RMK A01 T01130066  RH  075%=      5-min Rain = 0
KMUS 082255Z 25007KT 11/07 A3026 RMK A01 T01130066  RH  075%=      5-min Rain = 0
KMUS 082300Z 25008KT 11/07 A3026 RMK A01 T01130066  RH  075%=      5-min Rain = 0
KMUS 082305Z 25007KT 11/07 A3027 RMK A01 T01110066  RH  075%=      5-min Rain = 0
KMUS 082310Z 25007KT 11/07 A3027 RMK A01 T01110065  RH  076%=      5-min Rain = 0
KMUS 082315Z 26008KT 11/07 A3027 RMK A01 T01090065  RH  076%=      5-min Rain = 0
KMUS 082320Z 25007KT 11/07 A3027 RMK A01 T01080065  RH  076%=      5-min Rain = 0
KMUS 082325Z 25006KT 11/07 A3027 RMK A01 T01070065  RH  077%=      5-min Rain = 0
KMUS 082330Z 25006KT 11/07 A3027 RMK A01 T01060065  RH  078%=      5-min Rain = 0
KMUS 082335Z 25005KT 10/06 A3027 RMK A01 T01040064  RH  078%=      5-min Rain = 0
KMUS 082340Z 26004KT 10/06 A3027 RMK A01 T01010063  RH  079%=      5-min Rain = 0
KMUS 082345Z 26004KT 10/06 A3027 RMK A01 T00970061  RH  080%=      5-min Rain = 0
KMUS 082350Z 29002KT 09/06 A3027 RMK A01 T00940060  RH  081%=      5-min Rain = 0
KMUS 082355Z 30002KT 09/06 A3027 RMK A01 T00910059  RH  083%=      5-min Rain = 0
KMUS 090000Z 29003KT 09/06 A3027 RMK A01 T00880058  RH  083%=      5-min Rain = 0
KMUS 090005Z 28003KT 08/05 A3027 RMK A01 T00820052  RH  084%=      5-min Rain = 0
KMUS 090010Z 27004KT 08/05 A3027 RMK A01 T00760050  RH  085%=      5-min Rain = 0
KMUS 090015Z 27004KT 07/04 A3027 RMK A01 T00670041  RH  086%=      5-min Rain = 0
KMUS 090020Z 27003KT 06/04 A3027 RMK A01 T00590036  RH  087%=      5-min Rain = 0
KMUS 090025Z 28003KT 06/04 A3027 RMK A01 T00560037  RH  089%=      5-min Rain = 0
KMUS 090030Z 28002KT 06/04 A3027 RMK A01 T00550037  RH  090%=      5-min Rain = 0
KMUS 090035Z 28002KT 05/04 A3027 RMK A01 T00520035  RH  091%=      5-min Rain = 0
KMUS 090040Z 27002KT 05/04 A3027 RMK A01 T00520037  RH  092%=      5-min Rain = 0
KMUS 090045Z 27003KT 05/04 A3027 RMK A01 T00490035  RH  092%=      5-min Rain = 0
KMUS 090050Z 27003KT 05/03 A3028 RMK A01 T00450031  RH  092%=      5-min Rain = 0
KMUS 090055Z 27002KT 04/03 A3028 RMK A01 T00430029  RH  093%=      5-min Rain = 0
KMUS 090100Z 26000KT 04/03 A3028 RMK A01 T00440032  RH  094%=      5-min Rain = 0
KMUS 090105Z 00000KT 05/03 A3028 RMK A01 T00450034  RH  094%=      5-min Rain = 0
KMUS 090110Z 00000KT 04/03 A3029 RMK A01 T00440033  RH  094%=      5-min Rain = 0
KMUS 090115Z 00000KT 04/03 A3029 RMK A01 T00420030  RH  094%=      5-min Rain = 0
KMUS 090120Z 27000KT 04/03 A3029 RMK A01 T00370026  RH  094%=      5-min Rain = 0
KMUS 090125Z 26001KT 03/02 A3029 RMK A01 T00330023  RH  094%=      5-min Rain = 0
KMUS 090130Z 26000KT 03/02 A3029 RMK A01 T00290018  RH  094%=      5-min Rain = 0
KMUS 090135Z 22001KT 03/02 A3029 RMK A01 T00250016  RH  095%=      5-min Rain = 0
KMUS 090140Z 20003KT 03/02 A303 RMK A01 T00250017  RH  096%=      5-min Rain = 0
KMUS 090145Z 21004KT 03/02 A303 RMK A01 T00270020  RH  097%=      5-min Rain = 0
KMUS 090150Z 21004KT 03/02 A303 RMK A01 T00290022  RH  097%=      5-min Rain = 0
KMUS 090155Z 22005KT 03/02 A303 RMK A01 T00300023  RH  097%=      5-min Rain = 0
KMUS 090200Z 22005KT 03/03 A303 RMK A01 T00320025  RH  097%=      5-min Rain = 0
KMUS 090205Z 23004KT 03/03 A303 RMK A01 T00320026  RH  097%=      5-min Rain = 0
KMUS 090210Z 23002KT 03/03 A303 RMK A01 T00310025  RH  097%=      5-min Rain = 0
KMUS 090215Z 22002KT 03/03 A303 RMK A01 T00330027  RH  097%=      5-min Rain = 0
KMUS 090220Z 23002KT 03/03 A303 RMK A01 T00320026  RH  097%=      5-min Rain = 0
KMUS 090225Z 22003KT 03/02 A303 RMK A01 T00300023  RH  097%=      5-min Rain = 0
KMUS 090230Z 22004KT 02/02 A303 RMK A01 T00240018  RH  097%=      5-min Rain = 0
KMUS 090235Z 24004KT 02/02 A303 RMK A01 T00230017  RH  098%=      5-min Rain = 0
KMUS 090240Z 24002KT 02/02 A303 RMK A01 T00220016  RH  098%=      5-min Rain = 0
KMUS 090245Z 24002KT 02/02 A303 RMK A01 T00220017  RH  098%=      5-min Rain = 0
KMUS 090250Z 25003KT 02/02 A303 RMK A01 T00240020  RH  098%=      5-min Rain = 0
KMUS 090255Z 26004KT 02/02 A3029 RMK A01 T00240019  RH  098%=      5-min Rain = 0
KMUS 090300Z 26005KT 02/01 A3029 RMK A01 T00200014  RH  097%=      5-min Rain = 0
KMUS 090305Z 25005KT 02/02 A3029 RMK A01 T00190015  RH  098%=      5-min Rain = 0
KMUS 090310Z 25005KT 02/02 A3029 RMK A01 T00190015  RH  098%=      5-min Rain = 0
KMUS 090315Z 26004KT 02/01 A303 RMK A01 T00180014  RH  098%=      5-min Rain = 0
KMUS 090320Z 27005KT 02/01 A303 RMK A01 T00180014  RH  098%=      5-min Rain = 0
KMUS 090325Z 26005KT 02/01 A303 RMK A01 T00170013  RH  098%=      5-min Rain = 0
KMUS 090330Z 26005KT 02/01 A303 RMK A01 T00160011  RH  098%=      5-min Rain = 0
KMUS 090335Z 25005KT 02/01 A303 RMK A01 T00160012  RH  099%=      5-min Rain = 0
KMUS 090340Z 24005KT 02/01 A303 RMK A01 T00150011  RH  099%=      5-min Rain = 0
KMUS 090345Z 26004KT 01/01 A303 RMK A01 T00140011  RH  099%=      5-min Rain = 0
KMUS 090350Z 26004KT 01/01 A303 RMK A01 T00130009  RH  099%=      5-min Rain = 0
KMUS 090355Z 27004KT 01/01 A303 RMK A01 T00120008  RH  099%=      5-min Rain = 0
KMUS 090400Z 28004KT 01/01 A303 RMK A01 T00110007  RH  099%=      5-min Rain = 0
KMUS 090405Z 28005KT 01/01 A303 RMK A01 T00090005  RH  099%=      5-min Rain = 0.01
KMUS 090410Z 27004KT 01/00 A303 RMK A01 T00060003  RH  099%=      5-min Rain = 0
KMUS 090415Z 27004KT 01/00 A303 RMK A01 T00050002  RH  099%=      5-min Rain = 0
KMUS 090420Z 27005KT 01/00 A303 RMK A01 T00050002  RH  099%=      5-min Rain = 0
KMUS 090425Z 27005KT 01/00 A303 RMK A01 T00050002  RH  099%=      5-min Rain = 0
KMUS 090430Z 27006KT 01/00 A303 RMK A01 T00060003  RH  099%=      5-min Rain = 0
KMUS 090435Z 25006KT 01/00 A303 RMK A01 T00060004  RH  099%=      5-min Rain = 0
KMUS 090440Z 24007KT 01/01 A3029 RMK A01 T00080006  RH  100%=      5-min Rain = 0
KMUS 090445Z 23007KT 01/01 A3029 RMK A01 T00110009  RH  100%=      5-min Rain = 0
KMUS 090450Z 23006KT 02/01 A303 RMK A01 T00150013  RH  100%=      5-min Rain = 0
KMUS 090455Z 24006KT 02/01 A303 RMK A01 T00150013  RH  100%=      5-min Rain = 0
KMUS 090500Z 24006KT 02/01 A3029 RMK A01 T00170014  RH  100%=      5-min Rain = 0
KMUS 090505Z 24006KT 02/02 A303 RMK A01 T00210018  RH  100%=      5-min Rain = 0
KMUS 090510Z 25006KT 02/02 A303 RMK A01 T00220020  RH  100%=      5-min Rain = 0
KMUS 090515Z 26006KT 02/02 A303 RMK A01 T00220020  RH  100%=      5-min Rain = 0
KMUS 090520Z 26006KT 02/02 A303 RMK A01 T00230020  RH  100%=      5-min Rain = 0
KMUS 090525Z 28005KT 02/02 A303 RMK A01 T00200017  RH  099%=      5-min Rain = 0
KMUS 090530Z 28005KT 01/01 A303 RMK A01 T00140010  RH  099%=      5-min Rain = 0
KMUS 090535Z 27005KT 01/01 A303 RMK A01 T00090006  RH  099%=      5-min Rain = 0
KMUS 090540Z 27006KT 01/01 A303 RMK A01 T00090007  RH  100%=      5-min Rain = 0
KMUS 090545Z 27006KT 01/01 A303 RMK A01 T00100008  RH  100%=      5-min Rain = 0
KMUS 090550Z 25007KT 01/01 A3029 RMK A01 T00100008  RH  100%=      5-min Rain = 0
KMUS 090555Z 26007KT 01/01 A3029 RMK A01 T00140012  RH  100%=      5-min Rain = 0

Page generated in 0.0185 seconds.